Time;durP1;ratioP1;P1;durP2;ratioP2;P2;SDS_P1;SDS_P2;PMS_P1;PMS_P2;Temp;Humidity;BMP_temperature;BMP_pressure;BME280_temperature;BME280_humidity;BME280_pressure;Samples;Min_cycle;Max_cycle;Signal;HPM_P1;HPM_P2
2022/09/16 00:01:33;;;;;;;0.70;0.50;;;23.60;60.80;;;;;;5083619;28;20099;-61
2022/09/16 00:03:59;;;;;;;2.13;1.00;;;23.60;60.70;;;;;;5083655;28;20021;-61
2022/09/16 00:06:28;;;;;;;3.83;0.70;;;23.60;60.70;;;;;;5083634;28;20019;-61
2022/09/16 00:08:56;;;;;;;1.95;1.10;;;23.60;60.80;;;;;;5082888;28;20027;-59
2022/09/16 00:11:22;;;;;;;0.77;0.60;;;23.60;60.70;;;;;;5083506;28;20036;-61
2022/09/16 00:13:48;;;;;;;2.10;0.93;;;23.60;60.80;;;;;;5083515;28;20032;-61
2022/09/16 00:16:20;;;;;;;1.17;0.88;;;23.60;60.80;;;;;;5083581;28;20073;-61
2022/09/16 00:18:46;;;;;;;0.77;0.60;;;23.60;60.80;;;;;;5083550;28;20028;-61
2022/09/16 00:21:12;;;;;;;1.33;0.70;;;23.60;61.40;;;;;;5083451;28;20021;-60
2022/09/16 00:23:38;;;;;;;0.85;0.52;;;23.60;60.70;;;;;;5083430;28;20017;-61
2022/09/16 00:26:04;;;;;;;1.02;0.90;;;23.50;60.70;;;;;;5083409;28;20017;-59
2022/09/16 00:28:30;;;;;;;0.77;0.73;;;23.60;60.70;;;;;;5083402;28;20024;-60
2022/09/16 00:31:00;;;;;;;1.02;0.60;;;23.50;60.70;;;;;;5083382;28;20017;-59
2022/09/16 00:33:29;;;;;;;0.60;0.60;;;23.50;60.70;;;;;;5083382;28;20327;-61
2022/09/16 00:36:24;;;;;;;1.20;0.70;;;23.60;60.80;;;;;;5083354;28;20077;-61
2022/09/16 00:38:51;;;;;;;0.90;0.70;;;23.50;60.60;;;;;;5070419;28;20320;-61
2022/09/16 00:41:22;;;;;;;0.90;0.57;;;23.50;60.70;;;;;;5083198;28;20028;-60
2022/09/16 00:43:56;;;;;;;2.45;0.90;;;23.60;60.70;;;;;;5083305;28;20047;-61
2022/09/16 00:46:43;;;;;;;0.80;0.60;;;23.50;60.70;;;;;;5083245;28;20012;-62
2022/09/16 00:49:19;;;;;;;0.60;0.60;;;23.50;60.70;;;;;;5083154;28;20043;-60
2022/09/16 00:51:47;;;;;;;1.45;0.60;;;23.60;60.70;;;;;;5083133;28;20059;-61
2022/09/16 00:54:16;;;;;;;0.70;0.60;;;23.50;60.70;;;;;;5083185;28;20035;-60
2022/09/16 00:56:43;;;;;;;;;;;23.50;60.70;;;;;;5083604;28;20024;-60
2022/09/16 00:59:16;;;;;;;0.50;0.50;;;23.50;60.70;;;;;;5083114;28;19901;-61
2022/09/16 01:01:43;;;;;;;2.17;0.80;;;23.50;60.70;;;;;;5083075;28;20023;-60
2022/09/16 01:04:59;;;;;;;1.02;0.75;;;23.50;60.70;;;;;;5083079;28;20308;-61
2022/09/16 01:07:41;;;;;;;0.60;0.60;;;23.50;61.40;;;;;;5078539;28;20324;-61
2022/09/16 01:10:07;;;;;;;1.05;0.80;;;23.50;60.70;;;;;;5083016;28;20016;-61
2022/09/16 01:12:34;;;;;;;0.95;0.80;;;23.50;60.70;;;;;;5082910;28;20044;-60
2022/09/16 01:15:01;;;;;;;0.98;0.60;;;23.50;60.70;;;;;;5082966;28;20035;-59
2022/09/16 01:17:59;;;;;;;0.98;0.90;;;23.50;60.70;;;;;;5082943;28;20205;-61
2022/09/16 01:20:46;;;;;;;1.48;0.90;;;23.50;60.70;;;;;;5085559;28;20065;-61
2022/09/16 01:23:21;;;;;;;1.57;0.70;;;23.50;60.70;;;;;;5086559;28;20084;-60
2022/09/16 01:25:55;;;;;;;1.42;0.80;;;23.50;60.70;;;;;;5086573;28;20020;-61
2022/09/16 01:28:39;;;;;;;0.68;0.68;;;23.50;60.70;;;;;;5086553;28;20016;-61
2022/09/16 01:31:23;;;;;;;0.50;0.50;;;23.50;60.60;;;;;;5086454;28;20039;-60
2022/09/16 01:34:08;;;;;;;0.75;0.60;;;23.50;60.70;;;;;;5086469;28;20082;-62
2022/09/16 01:37:00;;;;;;;0.45;0.45;;;23.50;60.70;;;;;;5086370;28;20307;-60
2022/09/16 01:39:44;;;;;;;0.82;0.82;;;23.50;60.70;;;;;;5086344;28;20028;-60
2022/09/16 01:42:26;;;;;;;0.60;0.60;;;23.50;60.70;;;;;;5086244;28;20025;-60
2022/09/16 01:45:15;;;;;;;0.70;0.70;;;23.50;60.70;;;;;;5086235;28;20023;-61
2022/09/16 01:47:49;;;;;;;0.50;0.50;;;23.40;60.70;;;;;;5086197;28;20066;-61
2022/09/16 01:50:26;;;;;;;1.20;0.80;;;23.50;60.70;;;;;;5086117;28;20054;-61
2022/09/16 01:53:17;;;;;;;0.88;0.80;;;23.40;60.70;;;;;;5086071;28;20017;-60
2022/09/16 01:55:58;;;;;;;0.60;0.60;;;23.40;60.60;;;;;;5086084;28;20347;-61
2022/09/16 01:58:42;;;;;;;0.43;0.43;;;23.40;60.70;;;;;;5086030;28;20031;-60
2022/09/16 02:01:24;;;;;;;0.60;0.60;;;23.40;60.60;;;;;;5085950;28;20077;-61
2022/09/16 02:03:57;;;;;;;1.38;0.68;;;23.50;60.70;;;;;;5085917;28;20016;-62
2022/09/16 02:06:25;;;;;;;0.73;0.60;;;23.40;60.60;;;;;;5085892;28;20017;-61
2022/09/16 02:09:08;;;;;;;0.60;0.52;;;23.50;60.80;;;;;;5085833;28;20032;-61
2022/09/16 02:11:36;;;;;;;0.70;0.63;;;23.40;60.60;;;;;;5085584;28;20044;-61
2022/09/16 02:14:12;;;;;;;0.50;0.50;;;23.50;60.70;;;;;;5085737;28;20027;-61
2022/09/16 02:17:03;;;;;;;0.77;0.60;;;23.50;60.70;;;;;;5085684;28;20024;-61
2022/09/16 02:19:36;;;;;;;0.95;0.80;;;23.40;60.60;;;;;;5085675;28;20017;-60
2022/09/16 02:22:07;;;;;;;0.68;0.68;;;23.40;60.60;;;;;;5085497;28;20087;-60
2022/09/16 02:24:34;;;;;;;0.57;0.50;;;23.40;60.60;;;;;;5067679;28;20025;-60
2022/09/16 02:27:05;;;;;;;0.60;0.53;;;23.40;60.60;;;;;;5085481;28;20075;-60
2022/09/16 02:29:45;;;;;;;0.88;0.73;;;23.40;60.70;;;;;;5085459;28;20020;-61
2022/09/16 02:32:12;;;;;;;1.20;1.02;;;23.40;60.70;;;;;;5084626;28;20048;-61
2022/09/16 02:34:42;;;;;;;0.98;0.70;;;23.40;60.70;;;;;;5085290;28;20087;-61
2022/09/16 02:37:14;;;;;;;0.75;0.70;;;23.40;60.70;;;;;;5085291;28;20216;-60
2022/09/16 02:39:45;;;;;;;1.48;0.70;;;23.40;60.70;;;;;;5085169;28;20020;-61
2022/09/16 02:42:11;;;;;;;1.48;1.00;;;23.40;60.70;;;;;;5085123;28;20028;-61
2022/09/16 02:44:37;;;;;;;0.82;0.60;;;23.40;60.60;;;;;;5085119;28;20016;-60
2022/09/16 02:47:11;;;;;;;0.60;0.60;;;23.40;60.60;;;;;;5085319;28;20016;-60
2022/09/16 02:50:04;;;;;;;0.60;0.60;;;23.40;60.60;;;;;;5085023;28;20058;-60
2022/09/16 02:52:53;;;;;;;1.13;0.55;;;23.40;60.60;;;;;;5084923;28;20027;-60
2022/09/16 02:55:41;;;;;;;0.80;0.70;;;23.40;60.60;;;;;;5084931;28;20024;-61
2022/09/16 02:58:09;;;;;;;2.30;0.60;;;23.40;60.60;;;;;;5084873;28;20288;-60
2022/09/16 03:00:42;;;;;;;0.73;0.70;;;23.40;60.60;;;;;;5084792;28;20020;-60
2022/09/16 03:03:08;;;;;;;0.70;0.65;;;23.40;60.60;;;;;;5084694;28;20342;-61
2022/09/16 03:05:33;;;;;;;0.70;0.70;;;23.40;60.60;;;;;;5084681;28;20334;-61
2022/09/16 03:08:05;;;;;;;0.95;0.57;;;23.40;60.60;;;;;;5084633;28;20012;-61
2022/09/16 03:10:42;;;;;;;1.48;0.75;;;23.40;60.60;;;;;;5084617;28;20012;-61
2022/09/16 03:13:53;;;;;;;0.82;0.82;;;23.40;60.60;;;;;;5084572;28;20039;-60
2022/09/16 03:16:34;;;;;;;0.77;0.77;;;23.40;60.60;;;;;;5078713;28;20028;-60
2022/09/16 03:19:37;;;;;;;0.93;0.57;;;23.40;60.60;;;;;;5084394;28;20047;-60
2022/09/16 03:22:03;;;;;;;1.23;0.57;;;23.40;60.60;;;;;;5084267;28;20024;-61
2022/09/16 03:24:49;;;;;;;1.25;1.15;;;23.40;60.60;;;;;;5084301;28;20062;-61
2022/09/16 03:27:28;;;;;;;0.63;0.63;;;23.40;60.60;;;;;;5084292;28;20016;-61
2022/09/16 03:30:06;;;;;;;1.65;0.60;;;23.40;60.60;;;;;;5084244;28;20021;-61
2022/09/16 03:32:35;;;;;;;0.85;0.50;;;23.40;60.60;;;;;;5084098;28;20039;-61
2022/09/16 03:35:27;;;;;;;1.55;0.85;;;23.40;60.60;;;;;;5084407;28;20020;-60
2022/09/16 03:37:54;;;;;;;0.45;0.45;;;23.40;60.60;;;;;;5084075;28;20036;-61
2022/09/16 03:40:22;;;;;;;0.57;0.57;;;23.40;60.60;;;;;;5084028;28;20023;-60
2022/09/16 03:42:47;;;;;;;0.77;0.77;;;23.40;60.60;;;;;;5083876;28;20034;-61
2022/09/16 03:45:17;;;;;;;0.75;0.70;;;23.40;60.60;;;;;;5083934;28;20447;-61
2022/09/16 03:47:45;;;;;;;0.93;0.80;;;23.40;60.60;;;;;;5084195;28;20020;-61
2022/09/16 03:50:11;;;;;;;1.08;0.60;;;23.40;60.60;;;;;;5083881;28;20020;-61
2022/09/16 03:52:38;;;;;;;0.60;0.60;;;23.40;60.60;;;;;;5083858;28;20033;-60
2022/09/16 03:55:04;;;;;;;0.68;0.60;;;23.30;60.50;;;;;;5084089;28;20048;-61
2022/09/16 03:57:30;;;;;;;0.98;0.80;;;23.30;60.60;;;;;;5083732;28;20024;-61
2022/09/16 03:59:56;;;;;;;0.70;0.55;;;23.40;60.60;;;;;;5083731;28;20235;-60
2022/09/16 04:02:22;;;;;;;0.77;0.77;;;23.30;60.50;;;;;;5083675;28;20025;-60
2022/09/16 04:04:48;;;;;;;1.00;1.00;;;23.30;60.60;;;;;;5083634;28;20308;-61
2022/09/16 04:07:13;;;;;;;0.80;0.80;;;23.30;60.60;;;;;;5083649;28;20189;-61
2022/09/16 04:09:40;;;;;;;1.90;0.70;;;23.30;60.60;;;;;;5083657;28;20017;-60
2022/09/16 04:12:06;;;;;;;0.73;0.70;;;23.30;60.50;;;;;;5083382;28;20283;-61
2022/09/16 04:14:32;;;;;;;1.13;0.70;;;23.30;60.60;;;;;;5083719;28;20052;-60
2022/09/16 04:16:58;;;;;;;1.45;0.60;;;23.40;60.60;;;;;;5083535;28;20312;-60
2022/09/16 04:19:24;;;;;;;0.82;0.60;;;23.30;60.50;;;;;;5083395;28;20031;-60
2022/09/16 04:21:50;;;;;;;0.43;0.43;;;23.30;60.60;;;;;;5083343;28;20049;-61
2022/09/16 04:24:16;;;;;;;0.90;0.70;;;23.30;60.60;;;;;;5083465;28;20021;-61
2022/09/16 04:26:42;;;;;;;1.23;0.70;;;23.30;60.60;;;;;;5083654;28;20016;-60
2022/09/16 04:29:08;;;;;;;0.50;0.50;;;23.30;60.50;;;;;;5083376;28;20178;-61
2022/09/16 04:31:34;;;;;;;0.90;0.65;;;23.30;61.20;;;;;;5083354;28;20316;-61
2022/09/16 04:34:01;;;;;;;0.77;0.77;;;23.30;60.50;;;;;;5083305;28;20024;-60
2022/09/16 04:36:26;;;;;;;1.00;0.85;;;23.30;60.60;;;;;;5083819;28;20020;-60
2022/09/16 04:38:52;;;;;;;0.60;0.55;;;23.30;60.50;;;;;;5083300;28;20031;-60
2022/09/16 04:41:20;;;;;;;1.05;0.70;;;23.30;60.50;;;;;;5083167;28;20335;-59
2022/09/16 04:43:49;;;;;;;;;;;23.30;60.60;;;;;;5083652;28;20066;-60
2022/09/16 04:46:15;;;;;;;0.55;0.55;;;23.30;60.50;;;;;;5083193;28;19901;-60
2022/09/16 04:48:41;;;;;;;1.27;0.90;;;23.30;60.50;;;;;;5083193;28;20355;-60
2022/09/16 04:51:11;;;;;;;0.90;0.80;;;23.30;60.50;;;;;;5083197;28;20024;-60
2022/09/16 04:53:38;;;;;;;0.50;0.50;;;23.30;60.50;;;;;;5083145;28;20019;-60
2022/09/16 04:56:25;;;;;;;0.90;0.57;;;23.30;60.40;;;;;;5086947;28;20066;-60
2022/09/16 04:58:53;;;;;;;0.65;0.60;;;23.30;60.40;;;;;;5087129;28;20028;-60
2022/09/16 05:01:21;;;;;;;0.60;0.60;;;23.30;60.50;;;;;;5086993;28;20042;-60
2022/09/16 05:03:48;;;;;;;;;;;23.30;60.40;;;;;;5087409;28;20020;-62
2022/09/16 05:06:26;;;;;;;0.63;0.57;;;23.30;60.40;;;;;;5086906;28;19904;-61
2022/09/16 05:08:53;;;;;;;1.43;0.73;;;23.30;60.40;;;;;;5086881;28;20017;-61
2022/09/16 05:11:22;;;;;;;0.90;0.60;;;23.30;60.40;;;;;;5086683;28;20039;-61
2022/09/16 05:13:49;;;;;;;1.02;0.60;;;23.30;60.40;;;;;;5086773;28;20024;-61
2022/09/16 05:16:17;;;;;;;0.68;0.68;;;23.30;60.40;;;;;;5086750;28;20040;-60
2022/09/16 05:18:45;;;;;;;1.13;0.73;;;23.30;60.40;;;;;;5086711;28;20021;-61
2022/09/16 05:21:14;;;;;;;0.80;0.60;;;23.30;60.50;;;;;;5086574;28;20024;-61
2022/09/16 05:23:40;;;;;;;0.40;0.40;;;23.30;60.50;;;;;;5086618;28;20241;-61
2022/09/16 05:26:11;;;;;;;0.65;0.65;;;23.30;60.40;;;;;;5086557;28;20020;-60
2022/09/16 05:28:37;;;;;;;0.75;0.65;;;23.30;60.40;;;;;;5086791;28;20016;-61
2022/09/16 05:31:17;;;;;;;0.70;0.70;;;23.30;60.40;;;;;;5086477;28;20080;-61
2022/09/16 05:33:55;;;;;;;1.02;0.60;;;23.20;60.50;;;;;;5086430;28;20062;-61
2022/09/16 05:36:21;;;;;;;0.50;0.50;;;23.20;60.60;;;;;;5086422;28;20216;-61
2022/09/16 05:38:48;;;;;;;1.23;0.90;;;23.30;60.50;;;;;;5086309;28;20328;-61
2022/09/16 05:41:14;;;;;;;0.60;0.60;;;23.20;60.50;;;;;;5086159;28;20335;-60
2022/09/16 05:43:40;;;;;;;0.50;0.50;;;23.20;60.50;;;;;;5086231;28;20023;-60
2022/09/16 05:46:06;;;;;;;0.50;0.50;;;23.20;60.50;;;;;;5086255;28;20021;-60
2022/09/16 05:48:34;;;;;;;0.80;0.50;;;23.20;60.50;;;;;;5086185;28;20036;-60
2022/09/16 05:51:01;;;;;;;0.70;0.60;;;23.20;60.50;;;;;;5086158;28;20207;-60
2022/09/16 05:53:28;;;;;;;2.03;0.80;;;23.20;60.50;;;;;;5086108;28;20016;-61
2022/09/16 05:56:05;;;;;;;1.55;0.80;;;23.20;60.50;;;;;;5086023;28;20063;-61
2022/09/16 05:58:33;;;;;;;0.63;0.63;;;23.30;60.50;;;;;;5086002;28;20016;-61
2022/09/16 06:01:05;;;;;;;1.35;0.70;;;23.20;60.50;;;;;;5085925;28;20103;-61
2022/09/16 06:03:33;;;;;;;0.50;0.50;;;23.20;60.50;;;;;;5085950;28;20316;-61
2022/09/16 06:06:24;;;;;;;2.92;0.88;;;23.30;60.60;;;;;;5084976;28;20028;-60
2022/09/16 06:08:51;;;;;;;0.77;0.70;;;23.30;60.40;;;;;;5085845;28;20044;-60
2022/09/16 06:11:18;;;;;;;2.15;0.60;;;23.20;60.40;;;;;;5085555;28;20100;-61
2022/09/16 06:13:45;;;;;;;0.70;0.60;;;23.30;60.40;;;;;;5085694;28;20335;-60
2022/09/16 06:16:12;;;;;;;0.85;0.60;;;23.30;60.30;;;;;;5067889;28;20220;-60
2022/09/16 06:18:38;;;;;;;0.95;0.88;;;23.30;60.30;;;;;;5085607;28;20076;-60
2022/09/16 06:21:10;;;;;;;0.70;0.70;;;23.30;60.30;;;;;;5085602;28;20016;-60
2022/09/16 06:23:37;;;;;;;0.60;0.60;;;23.30;60.20;;;;;;5085832;28;20028;-61
2022/09/16 06:26:13;;;;;;;0.50;0.50;;;23.30;60.20;;;;;;5085498;28;20019;-60
2022/09/16 06:28:40;;;;;;;0.75;0.60;;;23.30;60.20;;;;;;5085470;28;20023;-60
2022/09/16 06:31:14;;;;;;;0.88;0.88;;;23.40;60.20;;;;;;5085377;28;20234;-60
2022/09/16 06:33:40;;;;;;;0.95;0.57;;;23.30;60.20;;;;;;5085336;28;20284;-61
2022/09/16 06:36:07;;;;;;;0.70;0.60;;;23.30;60.20;;;;;;5085297;28;20020;-61
2022/09/16 06:38:33;;;;;;;0.57;0.57;;;23.30;60.20;;;;;;5085564;28;20022;-61
2022/09/16 06:41:00;;;;;;;1.20;0.77;;;23.30;60.20;;;;;;5085214;28;20020;-61
2022/09/16 06:43:27;;;;;;;1.67;0.80;;;23.40;60.20;;;;;;5085090;28;20013;-61
2022/09/16 06:46:01;;;;;;;0.60;0.60;;;23.30;60.20;;;;;;5085124;28;20084;-61
2022/09/16 06:48:27;;;;;;;0.90;0.68;;;23.30;60.10;;;;;;5085086;28;20016;-60
2022/09/16 06:51:00;;;;;;;0.73;0.52;;;23.30;60.10;;;;;;5084971;28;20070;-61
2022/09/16 06:53:27;;;;;;;1.40;0.60;;;23.40;60.20;;;;;;5084976;28;20054;-60
2022/09/16 06:55:53;;;;;;;0.52;0.52;;;23.30;60.10;;;;;;5084879;28;20025;-60
2022/09/16 06:58:19;;;;;;;1.55;0.60;;;23.30;60.20;;;;;;5084873;28;20040;-60
2022/09/16 07:00:44;;;;;;;1.08;0.63;;;23.30;60.20;;;;;;5084805;28;20029;-60
2022/09/16 07:03:10;;;;;;;0.73;0.68;;;23.30;60.20;;;;;;5084666;28;20502;-60
2022/09/16 07:05:36;;;;;;;0.50;0.50;;;23.40;60.30;;;;;;5084704;28;20016;-60
2022/09/16 07:08:02;;;;;;;0.68;0.68;;;23.30;60.20;;;;;;5084652;28;20016;-59
2022/09/16 07:10:29;;;;;;;1.02;0.70;;;23.30;60.20;;;;;;5084615;28;20036;-61
2022/09/16 07:12:55;;;;;;;0.68;0.60;;;23.30;60.20;;;;;;5084428;28;20107;-62
2022/09/16 07:15:21;;;;;;;1.15;0.70;;;23.30;60.20;;;;;;5084757;28;20212;-60
2022/09/16 07:17:46;;;;;;;1.10;0.85;;;23.40;60.20;;;;;;5084161;28;20036;-61
2022/09/16 07:20:12;;;;;;;1.05;0.65;;;23.40;60.20;;;;;;5084407;28;20383;-61
2022/09/16 07:22:38;;;;;;;0.70;0.70;;;23.40;60.20;;;;;;5084300;28;20366;-60
2022/09/16 07:25:04;;;;;;;0.82;0.82;;;23.40;60.20;;;;;;5084318;28;20020;-60
2022/09/16 07:27:30;;;;;;;0.60;0.57;;;23.30;60.20;;;;;;5084279;28;20016;-60
2022/09/16 07:29:56;;;;;;;0.30;0.30;;;23.30;60.20;;;;;;5084222;28;20404;-60
2022/09/16 07:32:23;;;;;;;0.98;0.57;;;23.30;60.20;;;;;;5084184;28;20020;-59
2022/09/16 07:34:48;;;;;;;0.68;0.68;;;23.40;60.20;;;;;;5084636;28;20021;-60
2022/09/16 07:37:14;;;;;;;0.80;0.65;;;23.40;60.20;;;;;;5084126;28;20226;-60
2022/09/16 07:39:40;;;;;;;0.68;0.60;;;23.40;60.20;;;;;;5084084;28;20027;-62
2022/09/16 07:42:06;;;;;;;1.10;0.70;;;23.40;60.20;;;;;;5083961;28;20025;-61
2022/09/16 07:44:32;;;;;;;0.52;0.52;;;23.40;60.10;;;;;;5083973;28;20274;-60
2022/09/16 07:46:57;;;;;;;0.43;0.43;;;23.40;60.10;;;;;;5083979;28;20302;-61
2022/09/16 07:49:23;;;;;;;1.40;0.43;;;23.40;60.10;;;;;;5083922;28;20016;-60
2022/09/16 07:51:49;;;;;;;0.65;0.57;;;23.40;60.20;;;;;;5083888;28;20082;-60
2022/09/16 07:54:18;;;;;;;0.52;0.52;;;23.40;60.20;;;;;;5084103;28;20021;-60
2022/09/16 07:56:44;;;;;;;0.43;0.43;;;23.30;60.10;;;;;;5083790;28;20042;-60
2022/09/16 07:59:17;;;;;;;0.73;0.60;;;23.30;60.10;;;;;;5066001;28;20212;-60
2022/09/16 08:01:43;;;;;;;1.80;0.45;;;23.30;60.20;;;;;;5083632;28;20027;-61
2022/09/16 08:04:08;;;;;;;0.50;0.50;;;23.30;60.20;;;;;;5083742;28;20261;-60
2022/09/16 08:06:38;;;;;;;0.88;0.70;;;23.30;60.30;;;;;;5083632;28;20016;-61
2022/09/16 08:09:04;;;;;;;1.55;0.90;;;23.30;60.30;;;;;;5083645;28;20072;-61
2022/09/16 08:11:30;;;;;;;0.73;0.50;;;23.30;60.30;;;;;;5083433;28;20080;-61
2022/09/16 08:14:00;;;;;;;0.77;0.65;;;23.30;60.20;;;;;;5083599;28;20020;-61
2022/09/16 08:16:26;;;;;;;0.70;0.70;;;23.30;60.20;;;;;;5083575;28;20043;-61
2022/09/16 08:18:55;;;;;;;0.45;0.45;;;23.30;60.20;;;;;;5083550;28;20070;-62
2022/09/16 08:21:23;;;;;;;0.47;0.47;;;23.30;60.20;;;;;;5083465;28;20312;-61
2022/09/16 08:23:50;;;;;;;0.50;0.50;;;23.30;60.30;;;;;;5083510;28;20024;-61
2022/09/16 08:26:18;;;;;;;0.60;0.60;;;23.30;60.20;;;;;;5083485;28;20308;-61
2022/09/16 08:28:44;;;;;;;0.57;0.57;;;23.30;60.20;;;;;;5082798;28;20070;-60
2022/09/16 08:31:11;;;;;;;0.80;0.80;;;23.30;60.20;;;;;;5083366;28;20236;-61
2022/09/16 08:33:39;;;;;;;0.70;0.52;;;23.30;60.20;;;;;;5083407;28;20126;-61
2022/09/16 08:36:19;;;;;;;1.02;0.50;;;23.30;60.20;;;;;;5083391;28;20260;-61
2022/09/16 08:38:45;;;;;;;0.80;0.80;;;23.30;60.10;;;;;;5083392;28;20023;-60
2022/09/16 08:41:32;;;;;;;0.85;0.70;;;23.30;60.10;;;;;;5083231;28;20020;-60
2022/09/16 08:44:23;;;;;;;0.60;0.60;;;23.30;60.10;;;;;;5083345;28;20047;-60
2022/09/16 08:47:01;;;;;;;0.60;0.60;;;23.40;60.10;;;;;;5083526;28;20013;-61
2022/09/16 08:49:36;;;;;;;1.15;0.57;;;23.40;60.10;;;;;;5083267;28;20039;-61
2022/09/16 08:52:34;;;;;;;0.63;0.50;;;23.30;60.10;;;;;;5083254;28;20028;-61
2022/09/16 08:55:13;;;;;;;0.88;0.50;;;23.40;60.10;;;;;;5082686;28;20090;-61
2022/09/16 08:57:44;;;;;;;0.63;0.60;;;23.40;60.10;;;;;;5083499;28;20025;-60
2022/09/16 09:00:16;;;;;;;0.70;0.60;;;23.40;60.10;;;;;;5083183;28;20051;-60
2022/09/16 09:02:55;;;;;;;0.85;0.73;;;23.40;60.10;;;;;;5083068;28;20016;-60
2022/09/16 09:05:40;;;;;;;0.85;0.38;;;23.40;60.00;;;;;;5083174;28;20019;-60
2022/09/16 09:08:13;;;;;;;0.77;0.70;;;23.40;59.90;;;;;;5083097;28;20328;-61
2022/09/16 09:10:51;;;;;;;1.88;0.90;;;23.40;59.90;;;;;;5082861;28;20032;-61
2022/09/16 09:13:49;;;;;;;0.60;0.57;;;23.40;59.90;;;;;;5083103;28;20056;-62
2022/09/16 09:16:41;;;;;;;0.50;0.50;;;23.40;59.80;;;;;;5070991;28;20028;-60
2022/09/16 09:19:13;;;;;;;0.57;0.57;;;23.40;59.90;;;;;;5083006;28;20016;-59
2022/09/16 09:21:48;;;;;;;1.83;0.80;;;23.40;60.00;;;;;;5083113;28;20051;-60
2022/09/16 09:24:38;;;;;;;0.55;0.50;;;23.40;60.10;;;;;;5082942;28;20350;-61
2022/09/16 09:27:15;;;;;;;0.63;0.50;;;23.40;60.00;;;;;;5082900;28;20024;-61
2022/09/16 09:29:47;;;;;;;0.50;0.47;;;23.40;60.00;;;;;;5082968;28;20116;-61
2022/09/16 09:32:32;;;;;;;0.80;0.60;;;23.40;59.90;;;;;;5082860;28;20266;-60
2022/09/16 09:35:07;;;;;;;0.60;0.60;;;23.40;59.90;;;;;;5064949;28;20028;-61
2022/09/16 09:37:55;;;;;;;0.55;0.55;;;23.40;59.90;;;;;;5082822;28;20070;-61
2022/09/16 09:40:33;;;;;;;0.57;0.55;;;23.40;59.90;;;;;;5083649;28;20072;-61
2022/09/16 09:43:06;;;;;;;;;;;23.40;59.90;;;;;;5086732;28;20216;-61
2022/09/16 09:45:45;;;;;;;0.60;0.60;;;23.40;60.00;;;;;;5086252;28;19982;-61
2022/09/16 09:48:21;;;;;;;0.60;0.60;;;23.40;60.00;;;;;;5086270;28;20016;-60
2022/09/16 09:50:48;;;;;;;1.00;0.85;;;23.40;60.00;;;;;;5086196;28;20016;-61
2022/09/16 09:53:31;;;;;;;0.40;0.40;;;23.40;60.00;;;;;;5086170;28;20021;-59
2022/09/16 09:56:16;;;;;;;0.70;0.70;;;23.40;60.00;;;;;;5086130;28;20040;-60
2022/09/16 09:59:08;;;;;;;0.40;0.40;;;23.40;59.90;;;;;;5085961;28;20299;-61
2022/09/16 10:01:34;;;;;;;0.85;0.52;;;23.40;60.00;;;;;;5085954;28;20021;-61
2022/09/16 10:04:00;;;;;;;0.55;0.55;;;23.40;60.00;;;;;;5085975;28;20235;-61
2022/09/16 10:06:29;;;;;;;0.60;0.60;;;23.40;60.00;;;;;;5085875;28;20035;-60
2022/09/16 10:08:57;;;;;;;0.57;0.57;;;23.40;60.00;;;;;;5085834;28;20181;-61
2022/09/16 10:11:31;;;;;;;0.80;0.52;;;23.30;60.00;;;;;;5085665;28;20040;-62
2022/09/16 10:13:59;;;;;;;0.90;0.70;;;23.40;60.00;;;;;;5085756;28;20062;-60
2022/09/16 10:16:46;;;;;;;0.60;0.60;;;23.40;60.10;;;;;;5085672;28;20023;-62
2022/09/16 10:19:20;;;;;;;0.68;0.50;;;23.40;60.00;;;;;;5085673;28;20300;-62
2022/09/16 10:21:53;;;;;;;0.50;0.50;;;23.40;60.00;;;;;;5085539;28;20189;-61
2022/09/16 10:24:31;;;;;;;0.45;0.40;;;23.40;60.00;;;;;;5085590;28;20257;-62
2022/09/16 10:26:58;;;;;;;0.60;0.60;;;23.30;59.90;;;;;;5085447;28;20092;-61
2022/09/16 10:29:24;;;;;;;0.60;0.43;;;23.40;59.90;;;;;;5085465;28;20023;-60
2022/09/16 10:31:50;;;;;;;0.57;0.57;;;23.40;59.90;;;;;;5085407;28;20020;-59
2022/09/16 10:34:32;;;;;;;0.73;0.50;;;23.40;59.90;;;;;;5085356;28;20024;-61
2022/09/16 10:37:13;;;;;;;1.08;0.50;;;23.40;59.90;;;;;;5085347;28;20020;-60
2022/09/16 10:39:52;;;;;;;0.40;0.40;;;23.40;59.90;;;;;;5085240;28;20017;-61
2022/09/16 10:42:28;;;;;;;0.40;0.40;;;23.40;59.90;;;;;;5085436;28;20239;-61
2022/09/16 10:45:02;;;;;;;0.50;0.50;;;23.40;59.80;;;;;;5085130;28;20247;-61
2022/09/16 10:47:31;;;;;;;0.60;0.60;;;23.40;59.80;;;;;;5085133;28;20021;-61
2022/09/16 10:50:05;;;;;;;0.47;0.47;;;23.40;59.80;;;;;;5085050;28;20020;-60
2022/09/16 10:52:42;;;;;;;0.57;0.52;;;23.40;60.40;;;;;;5084653;28;20083;-61
2022/09/16 10:55:31;;;;;;;0.70;0.70;;;23.40;59.80;;;;;;5085007;28;20204;-60
2022/09/16 10:58:17;;;;;;;1.20;0.57;;;23.40;59.80;;;;;;5085127;28;20253;-61
2022/09/16 11:00:56;;;;;;;0.57;0.40;;;23.40;59.70;;;;;;5084839;28;20046;-61
2022/09/16 11:03:50;;;;;;;1.38;0.70;;;23.40;59.70;;;;;;5083298;28;20036;-59
2022/09/16 11:06:34;;;;;;;2.65;1.10;;;23.40;54.70;;;;;;5082701;28;20079;-62
2022/09/16 11:09:24;;;;;;;4.40;1.42;;;23.30;55.30;;;;;;5084303;28;20020;-61
2022/09/16 11:12:17;;;;;;;6.40;1.42;;;23.30;54.40;;;;;;5073684;28;20048;-61
2022/09/16 11:15:13;;;;;;;2.92;1.30;;;23.30;53.40;;;;;;5075459;28;20055;-61
2022/09/16 11:17:57;;;;;;;2.35;0.98;;;23.10;52.60;;;;;;5100899;28;20470;-61
2022/09/16 11:21:10;;;;;;;3.67;1.23;;;22.90;52.00;;;;;;5066833;28;20048;-61
2022/09/16 11:23:45;;;;;;;2.38;1.10;;;22.80;51.40;;;;;;5073395;28;20340;-59
2022/09/16 11:26:44;;;;;;;3.13;1.23;;;22.70;51.60;;;;;;5083991;28;20079;-60
2022/09/16 11:29:38;;;;;;;3.92;1.75;;;22.70;51.40;;;;;;5056600;28;20233;-60
2022/09/16 11:32:28;;;;;;;3.40;1.30;;;22.50;49.40;;;;;;5083959;28;20017;-61
2022/09/16 11:35:24;;;;;;;3.33;1.90;;;22.40;49.80;;;;;;5083156;28;20024;-61
2022/09/16 11:37:59;;;;;;;8.25;2.25;;;22.30;50.20;;;;;;5083716;28;20021;-59
2022/09/16 11:40:44;;;;;;;3.90;1.30;;;22.40;50.20;;;;;;5083796;28;20008;-60
2022/09/16 11:43:51;;;;;;;1.23;1.10;;;22.40;48.40;;;;;;5084305;28;20195;-60
2022/09/16 11:46:35;;;;;;;3.50;1.55;;;22.30;51.60;;;;;;5072320;28;20095;-60
2022/09/16 11:49:09;;;;;;;4.45;1.48;;;22.10;52.20;;;;;;5083694;28;20016;-60
2022/09/16 11:51:41;;;;;;;2.10;1.00;;;22.20;52.30;;;;;;5083581;28;20016;-60
2022/09/16 11:54:18;;;;;;;1.60;1.33;;;22.20;51.60;;;;;;5083645;28;20016;-60
2022/09/16 11:56:49;;;;;;;10.70;1.48;;;22.30;53.20;;;;;;5083485;28;20312;-62
2022/09/16 11:59:29;;;;;;;11.88;2.05;;;22.40;53.10;;;;;;5083089;28;20025;-60
2022/09/16 12:02:22;;;;;;;14.35;1.65;;;22.60;53.00;;;;;;5083402;28;20020;-63
2022/09/16 12:05:00;;;;;;;11.18;2.35;;;22.70;52.70;;;;;;5082526;28;20312;-62
2022/09/16 12:07:38;;;;;;;8.93;1.58;;;22.90;53.30;;;;;;5083377;28;20024;-60
2022/09/16 12:10:42;;;;;;;6.07;1.63;;;22.90;53.00;;;;;;5083349;28;20058;-60
2022/09/16 12:13:40;;;;;;;9.43;2.22;;;22.90;53.30;;;;;;5079134;28;20185;-59
2022/09/16 12:16:29;;;;;;;7.50;2.03;;;22.90;53.80;;;;;;5067062;28;20024;-59
2022/09/16 12:19:08;;;;;;;13.10;2.50;;;22.90;54.00;;;;;;5083334;28;20059;-60
2022/09/16 12:21:40;;;;;;;11.25;2.35;;;22.90;54.20;;;;;;5083204;28;20028;-61
2022/09/16 12:24:12;;;;;;;14.10;1.95;;;22.90;54.50;;;;;;5083190;28;20213;-61
2022/09/16 12:26:50;;;;;;;8.98;1.38;;;22.90;54.60;;;;;;5083128;28;20023;-60
2022/09/16 12:29:16;;;;;;;;;;;22.90;54.70;;;;;;5082198;28;20058;-58
2022/09/16 12:31:53;;;;;;;8.07;1.67;;;23.00;54.80;;;;;;5082834;28;19900;-61
2022/09/16 12:34:28;;;;;;;43.57;5.00;;;22.90;55.00;;;;;;5082755;28;20286;-62
2022/09/16 12:37:04;;;;;;;18.00;2.80;;;22.90;52.50;;;;;;5082234;28;20252;-62
2022/09/16 12:39:30;;;;;;;27.52;2.83;;;23.00;53.80;;;;;;5083327;28;20020;-60
2022/09/16 12:42:36;;;;;;;17.35;2.42;;;23.00;54.60;;;;;;5082992;28;20016;-61
2022/09/16 12:45:14;;;;;;;7.78;1.63;;;23.00;54.70;;;;;;5083216;28;20190;-62
2022/09/16 12:47:51;;;;;;;7.87;1.87;;;23.00;54.80;;;;;;5083302;28;20270;-63
2022/09/16 12:50:26;;;;;;;14.27;2.03;;;23.10;54.90;;;;;;5083157;28;20249;-63
2022/09/16 12:53:10;;;;;;;13.32;2.22;;;23.10;55.00;;;;;;5083221;28;20083;-62
2022/09/16 12:55:59;;;;;;;13.23;1.52;;;23.10;55.00;;;;;;5083146;28;20028;-62
2022/09/16 12:58:44;;;;;;;6.00;1.70;;;23.10;55.10;;;;;;5083140;28;20062;-62
2022/09/16 13:01:28;;;;;;;13.93;2.03;;;23.10;55.20;;;;;;5083130;28;20079;-63
2022/09/16 13:04:07;;;;;;;13.77;2.17;;;23.20;55.20;;;;;;5083065;28;20025;-61
2022/09/16 13:06:37;;;;;;;11.55;1.67;;;23.20;55.10;;;;;;5083088;28;20086;-63
2022/09/16 13:09:35;;;;;;;9.15;1.65;;;23.20;55.00;;;;;;5083135;28;20017;-62
2022/09/16 13:12:27;;;;;;;10.43;1.50;;;23.30;55.00;;;;;;5053057;28;20056;-62
2022/09/16 13:14:57;;;;;;;9.18;2.10;;;23.30;55.00;;;;;;5063174;28;20320;-62
2022/09/16 13:17:41;;;;;;;9.30;2.05;;;23.30;55.10;;;;;;5066811;28;20020;-62
2022/09/16 13:20:28;;;;;;;5.80;1.50;;;23.30;55.20;;;;;;5066787;28;20029;-62
2022/09/16 13:22:54;;;;;;;4.18;1.60;;;23.30;55.20;;;;;;5066659;28;20080;-62
2022/09/16 13:25:32;;;;;;;10.75;2.13;;;23.20;55.40;;;;;;5066643;28;20309;-61